Time;durP1;ratioP1;P1;durP2;ratioP2;P2;SDS_P1;SDS_P2;PMS_P1;PMS_P2;Temp;Humidity;BMP_temperature;BMP_pressure;BME280_temperature;BME280_humidity;BME280_pressure;Samples;Min_cycle;Max_cycle;Signal;HPM_P1;HPM_P2
2022/11/10 00:01:55;;;;;;;7.15;1.52;;;;;;;9.27;84.97;101618.91;5022631;28;20033;-76
2022/11/10 00:04:20;;;;;;;6.00;1.70;;;;;;;9.29;84.98;101618.06;5023336;28;20122;-77
2022/11/10 00:06:46;;;;;;;9.70;1.70;;;;;;;9.26;85.14;101614.59;5028097;28;20021;-77
2022/11/10 00:09:12;;;;;;;7.00;1.45;;;;;;;9.26;85.21;101617.19;5027300;28;20465;-76
2022/11/10 00:11:37;;;;;;;6.78;1.52;;;;;;;9.25;85.31;101620.66;5026493;28;20037;-76
2022/11/10 00:17:03;;;;;;;8.10;1.60;;;;;;;9.22;85.46;101617.25;5028925;28;20048;-76
2022/11/10 00:19:29;;;;;;;;;;;;;;;9.25;84.05;101617.22;5023159;28;20044;-76
2022/11/10 00:21:54;;;;;;;4.97;1.40;;;;;;;9.21;85.32;101618.09;5029025;28;20287;-76
2022/11/10 00:24:20;;;;;;;5.47;1.38;;;;;;;9.20;85.47;101624.16;5024734;28;20391;-77
2022/11/10 00:26:45;;;;;;;7.53;1.52;;;;;;;9.18;85.53;101616.41;5027355;28;20087;-77
2022/11/10 00:29:11;;;;;;;5.90;1.50;;;;;;;9.18;85.93;101624.19;5026522;28;20045;-77
2022/11/10 00:31:37;;;;;;;6.43;1.73;;;;;;;9.17;85.73;101629.38;5029603;28;20033;-76
2022/11/10 00:34:02;;;;;;;6.78;1.50;;;;;;;9.15;85.82;101632.00;5025322;28;20036;-76
2022/11/10 00:36:27;;;;;;;6.95;1.42;;;;;;;9.15;85.73;101634.59;5027713;28;20037;-76
2022/11/10 00:38:53;;;;;;;5.88;1.60;;;;;;;9.15;85.69;101639.78;5026487;28;20044;-77
2022/11/10 00:41:18;;;;;;;7.10;1.80;;;;;;;9.14;85.99;101635.47;5027004;28;20036;-76
2022/11/10 00:43:43;;;;;;;7.40;1.77;;;;;;;9.12;86.00;101637.22;5025899;28;20113;-77
2022/11/10 00:46:09;;;;;;;10.18;1.67;;;;;;;9.13;85.79;101646.72;5024510;28;20029;-77
2022/11/10 00:48:34;;;;;;;5.47;1.40;;;;;;;9.11;85.94;101646.75;5027856;28;20232;-77
2022/11/10 00:50:59;;;;;;;5.40;1.40;;;;;;;9.12;85.86;101652.78;5030514;28;20034;-77
2022/11/10 00:53:25;;;;;;;9.73;1.70;;;;;;;9.13;85.94;101651.06;5027833;28;20400;-77
2022/11/10 00:55:50;;;;;;;6.28;1.60;;;;;;;9.11;85.90;101657.13;5026108;28;20025;-77
2022/11/10 00:58:15;;;;;;;5.45;1.40;;;;;;;9.10;86.07;101652.81;5031874;28;20366;-77
2022/11/10 01:00:41;;;;;;;7.72;1.70;;;;;;;9.10;85.96;101646.75;5028743;28;20037;-76
2022/11/10 01:03:06;;;;;;;6.93;1.50;;;;;;;9.09;86.11;101645.00;5023555;28;20477;-76
2022/11/10 01:05:36;;;;;;;12.30;1.90;;;;;;;9.08;86.20;101651.94;5027247;28;20029;-77
2022/11/10 01:08:02;;;;;;;6.68;1.50;;;;;;;9.07;86.13;101650.22;5029900;28;20030;-77
2022/11/10 01:10:27;;;;;;;7.65;1.67;;;;;;;9.07;86.17;101650.22;5028605;28;20048;-77
2022/11/10 01:12:53;;;;;;;5.50;1.40;;;;;;;9.06;86.25;101661.47;5022980;28;20136;-77
2022/11/10 01:15:19;;;;;;;7.88;1.88;;;;;;;9.06;86.54;101655.41;5027102;28;20033;-76
2022/11/10 01:17:44;;;;;;;8.35;1.85;;;;;;;9.06;86.13;101658.00;5025571;28;20427;-77
2022/11/10 01:20:10;;;;;;;6.10;1.60;;;;;;;9.05;86.32;101664.09;5024143;28;20054;-77
2022/11/10 01:22:35;;;;;;;10.63;1.80;;;;;;;9.04;86.56;101675.34;5024823;28;20048;-77
2022/11/10 01:25:00;;;;;;;6.63;1.40;;;;;;;9.02;86.38;101677.94;5028252;28;20029;-77
2022/11/10 01:27:26;;;;;;;6.85;1.55;;;;;;;9.02;86.54;101692.66;5027358;28;20030;-77
2022/11/10 01:29:51;;;;;;;8.93;1.60;;;;;;;9.01;86.59;101688.34;5013564;28;20029;-77
2022/11/10 01:32:16;;;;;;;5.55;1.90;;;;;;;9.00;86.97;101694.41;5034506;28;20040;-77
2022/11/10 01:34:42;;;;;;;7.18;1.50;;;;;;;9.00;86.50;101695.25;5028424;28;20549;-76
2022/11/10 01:37:07;;;;;;;7.25;1.90;;;;;;;8.98;86.44;101688.34;5030146;28;20471;-77
2022/11/10 01:39:32;;;;;;;7.07;1.50;;;;;;;8.96;86.62;101699.59;5028924;28;20041;-77
2022/11/10 01:41:57;;;;;;;6.22;1.40;;;;;;;8.94;86.76;101706.53;5022780;28;20212;-76
2022/11/10 01:44:25;;;;;;;8.25;1.52;;;;;;;8.92;86.67;101697.88;5029312;28;20029;-77
2022/11/10 01:46:50;;;;;;;6.85;1.67;;;;;;;8.90;86.65;101697.03;5026843;28;20396;-76
2022/11/10 01:49:21;;;;;;;4.60;1.50;;;;;;;8.90;86.87;101704.81;5031284;28;20059;-77
2022/11/10 01:52:01;;;;;;;8.40;1.60;;;;;;;8.89;86.79;101702.22;5033242;28;20135;-77
2022/11/10 01:54:33;;;;;;;4.37;1.50;;;;;;;8.87;86.99;101706.56;5029192;28;20141;-77
2022/11/10 01:57:04;;;;;;;8.73;1.65;;;;;;;8.84;86.91;101699.66;5030616;28;20028;-77
2022/11/10 01:59:34;;;;;;;9.52;1.70;;;;;;;8.83;86.70;101697.94;5037810;28;20398;-77
2022/11/10 02:02:11;;;;;;;7.68;1.80;;;;;;;8.81;87.00;101697.94;5029871;28;20130;-77
2022/11/10 02:04:37;;;;;;;6.72;1.40;;;;;;;8.81;86.81;101704.88;5028697;28;20496;-77
2022/11/10 02:07:03;;;;;;;6.22;1.42;;;;;;;8.79;87.10;101706.59;5031582;28;20025;-77
2022/11/10 02:09:28;;;;;;;6.07;1.58;;;;;;;8.77;87.23;101698.84;5033021;28;20026;-77
2022/11/10 02:11:54;;;;;;;6.03;1.40;;;;;;;8.78;87.01;101707.47;5032636;28;20074;-77
2022/11/10 02:14:20;;;;;;;8.75;1.92;;;;;;;8.76;87.16;101699.69;5028573;28;20128;-77
2022/11/10 02:16:46;;;;;;;8.55;1.52;;;;;;;8.76;87.22;101706.59;5028918;28;20446;-76
2022/11/10 02:19:21;;;;;;;8.13;1.60;;;;;;;8.76;87.28;101701.41;5028632;28;20029;-76
2022/11/10 02:21:47;;;;;;;6.32;1.90;;;;;;;8.75;87.04;101705.75;5027728;28;20538;-77
2022/11/10 02:24:13;;;;;;;11.65;1.83;;;;;;;8.74;87.51;101703.16;5027954;28;20029;-77
2022/11/10 02:26:52;;;;;;;8.35;1.70;;;;;;;8.73;87.45;101710.09;5027618;28;20029;-77
2022/11/10 02:29:17;;;;;;;6.80;1.73;;;;;;;8.73;87.42;101717.00;5031057;28;20025;-77
2022/11/10 02:31:43;;;;;;;9.40;1.42;;;;;;;8.74;87.29;101724.78;5026640;28;20482;-77
2022/11/10 02:34:08;;;;;;;8.93;1.80;;;;;;;8.75;87.21;101733.41;5035570;28;20033;-77
2022/11/10 02:36:33;;;;;;;6.65;1.30;;;;;;;8.75;87.30;101736.00;5027479;28;20080;-77
2022/11/10 02:38:58;;;;;;;7.70;1.73;;;;;;;8.76;87.38;101742.94;5030973;28;20108;-77
2022/11/10 02:41:24;;;;;;;6.30;1.60;;;;;;;8.75;87.63;101747.28;5027831;28;20100;-77
2022/11/10 02:43:50;;;;;;;9.35;1.70;;;;;;;8.75;87.38;101746.38;5031512;28;20030;-77
2022/11/10 02:46:16;;;;;;;6.30;1.70;;;;;;;8.75;87.37;101751.59;5029086;28;20021;-77
2022/11/10 02:48:41;;;;;;;6.72;1.30;;;;;;;8.74;87.56;101758.50;5013721;28;20041;-77
2022/11/10 02:51:06;;;;;;;6.15;1.40;;;;;;;8.75;87.37;101751.59;5014306;28;20562;-77
2022/11/10 02:53:32;;;;;;;4.88;1.40;;;;;;;8.75;87.24;101756.78;5039305;28;20037;-77
2022/11/10 02:55:57;;;;;;;7.13;1.50;;;;;;;8.75;87.30;101759.38;5029631;28;20063;-77
2022/11/10 02:58:22;;;;;;;8.82;1.60;;;;;;;8.73;87.33;101742.94;5028768;28;20041;-77
2022/11/10 03:00:47;;;;;;;11.63;1.80;;;;;;;8.71;87.47;101752.47;5028025;28;20026;-77
2022/11/10 03:03:13;;;;;;;9.98;1.52;;;;;;;8.71;87.42;101761.13;5028477;28;20061;-77
2022/11/10 03:05:38;;;;;;;7.85;1.52;;;;;;;8.70;87.56;101766.31;5034412;28;20037;-77
2022/11/10 03:08:03;;;;;;;7.32;1.50;;;;;;;8.69;87.61;101762.00;5027592;28;20036;-77
2022/11/10 03:10:29;;;;;;;5.35;1.60;;;;;;;8.67;87.56;101763.72;5039004;28;20041;-77
2022/11/10 03:12:56;;;;;;;5.38;1.25;;;;;;;8.65;87.54;101763.72;5023968;28;20045;-77
2022/11/10 03:15:22;;;;;;;8.75;1.52;;;;;;;8.62;87.71;101767.19;5027654;28;20460;-77
2022/11/10 03:17:47;;;;;;;6.38;1.38;;;;;;;8.61;87.85;101765.47;5030810;28;20040;-77
2022/11/10 03:20:14;;;;;;;7.18;1.75;;;;;;;8.61;87.92;101768.06;5032198;28;20439;-77
2022/11/10 03:22:39;;;;;;;6.22;1.30;;;;;;;8.60;87.95;101771.50;5032159;28;20057;-77
2022/11/10 03:25:05;;;;;;;7.13;1.90;;;;;;;8.60;87.79;101770.66;5022763;28;20520;-77
2022/11/10 03:27:30;;;;;;;8.30;1.45;;;;;;;8.61;87.72;101772.41;5035560;28;20083;-77
2022/11/10 03:29:55;;;;;;;6.35;1.30;;;;;;;8.60;87.46;101784.47;5028774;28;20071;-76
2022/11/10 03:32:20;;;;;;;7.28;1.50;;;;;;;8.61;87.76;101790.56;5030267;28;20033;-77
2022/11/10 03:34:46;;;;;;;6.55;1.45;;;;;;;8.59;87.72;101787.94;5031306;28;20033;-77
2022/11/10 03:37:11;;;;;;;4.40;1.60;;;;;;;8.58;87.91;101793.16;5035365;28;20056;-77
2022/11/10 03:39:36;;;;;;;6.38;1.38;;;;;;;8.57;87.92;101797.44;5025028;28;20092;-77
2022/11/10 03:42:02;;;;;;;9.18;1.45;;;;;;;8.55;87.69;101798.34;5033827;28;20022;-77
2022/11/10 03:44:27;;;;;;;6.07;1.65;;;;;;;8.52;87.89;101796.63;5029873;28;20469;-76
2022/11/10 03:46:52;;;;;;;8.45;1.55;;;;;;;8.52;87.72;101806.13;5035271;28;20029;-77
2022/11/10 03:49:17;;;;;;;5.78;1.42;;;;;;;8.49;87.79;101813.03;5030007;28;20512;-77
2022/11/10 03:51:42;;;;;;;5.05;1.50;;;;;;;8.48;87.82;101815.63;5030446;28;20030;-77
2022/11/10 03:54:08;;;;;;;8.10;1.50;;;;;;;8.45;88.13;101816.47;5032970;28;20413;-77
2022/11/10 03:56:33;;;;;;;9.13;1.55;;;;;;;8.42;88.09;101824.25;5029952;28;20087;-77
2022/11/10 03:58:58;;;;;;;7.03;1.65;;;;;;;8.40;87.84;101826.00;5030980;28;20108;-76
2022/11/10 04:01:23;;;;;;;5.10;1.40;;;;;;;8.39;87.95;101832.03;5028813;28;20387;-76
2022/11/10 04:03:49;;;;;;;8.20;1.60;;;;;;;8.38;87.78;101832.03;5031919;28;20029;-77
2022/11/10 04:08:58;;;;;;;7.68;1.70;;;;;;;8.33;88.05;101817.34;5031624;28;20056;-77
2022/11/10 04:16:52;;;;;;;8.13;1.60;;;;;;;8.27;88.16;101843.28;5028450;28;20048;-77
2022/11/10 04:19:17;;;;;;;6.47;2.10;;;;;;;8.24;88.12;101848.44;5027394;28;20029;-76
2022/11/10 04:21:43;;;;;;;6.65;1.52;;;;;;;8.24;88.33;101863.16;5029735;28;20544;-77
2022/11/10 04:24:08;;;;;;;6.25;1.60;;;;;;;8.20;88.44;101870.03;5031428;28;20029;-77
2022/11/10 04:26:36;;;;;;;7.82;1.50;;;;;;;8.18;88.21;101870.06;5026900;28;20029;-77
2022/11/10 04:29:03;;;;;;;5.35;1.38;;;;;;;8.18;88.44;101882.16;5024856;28;20103;-77
2022/11/10 04:31:31;;;;;;;7.85;1.83;;;;;;;8.17;88.68;101877.84;5030849;28;20079;-76
2022/11/10 04:33:57;;;;;;;7.45;1.67;;;;;;;8.16;88.43;101874.38;5028618;28;20080;-77
2022/11/10 04:36:25;;;;;;;8.82;1.63;;;;;;;8.16;88.61;101881.28;5028213;28;20056;-76
2022/11/10 04:38:51;;;;;;;10.60;1.48;;;;;;;8.16;88.70;101899.44;5031604;28;20033;-77
2022/11/10 04:41:17;;;;;;;5.68;1.30;;;;;;;8.13;88.54;101897.69;5030870;28;20035;-77
2022/11/10 04:43:42;;;;;;;8.82;1.50;;;;;;;8.14;88.67;101911.53;5032223;28;20100;-77
2022/11/10 04:46:24;;;;;;;9.57;1.83;;;;;;;8.13;88.91;101912.38;5009529;28;20093;-76
2022/11/10 04:48:49;;;;;;;8.75;1.48;;;;;;;8.12;88.79;101910.66;5026155;28;20026;-77
2022/11/10 04:51:16;;;;;;;6.05;1.70;;;;;;;8.09;89.27;101916.72;5021239;28;20045;-77
2022/11/10 04:53:41;;;;;;;6.72;1.45;;;;;;;8.11;89.02;101919.28;5024368;28;20041;-77
2022/11/10 04:56:14;;;;;;;5.95;1.38;;;;;;;8.11;89.02;101919.28;5025384;28;20030;-77
2022/11/10 04:58:39;;;;;;;7.75;1.73;;;;;;;8.10;89.04;101927.94;5025936;28;20432;-77
2022/11/10 05:01:05;;;;;;;5.43;1.35;;;;;;;8.09;88.96;101926.19;5024955;28;20024;-77
2022/11/10 05:03:30;;;;;;;7.28;1.58;;;;;;;8.11;88.85;101934.84;5028688;28;20025;-76
2022/11/10 05:05:55;;;;;;;6.53;1.35;;;;;;;8.08;89.16;101930.53;5032764;28;20365;-77
2022/11/10 05:08:20;;;;;;;7.18;1.48;;;;;;;8.08;89.05;101925.34;5008734;28;20021;-76
2022/11/10 05:10:46;;;;;;;6.20;1.45;;;;;;;8.08;89.19;101932.25;5024027;28;20160;-77
2022/11/10 05:13:11;;;;;;;5.75;1.50;;;;;;;8.05;89.06;101926.19;5027042;28;20045;-77
2022/11/10 05:15:40;;;;;;;8.93;1.50;;;;;;;8.03;89.18;101933.09;5025966;28;20399;-77
2022/11/10 05:18:05;;;;;;;8.32;1.63;;;;;;;8.02;89.32;101939.16;5010427;28;20025;-77
2022/11/10 05:20:30;;;;;;;6.05;1.50;;;;;;;8.00;89.25;101934.81;5029202;28;20358;-77
2022/11/10 05:25:41;;;;;;;7.72;1.50;;;;;;;7.98;89.34;101928.75;5024789;28;20059;-77
2022/11/10 05:28:08;;;;;;;7.50;1.40;;;;;;;7.96;89.35;101928.78;5026841;28;20026;-77
2022/11/10 05:30:34;;;;;;;8.02;1.55;;;;;;;7.94;89.31;101927.91;5026265;28;20038;-77
2022/11/10 05:33:00;;;;;;;7.45;1.60;;;;;;;7.94;89.42;101938.25;5029451;28;20033;-77
2022/11/10 05:35:25;;;;;;;5.05;1.30;;;;;;;7.91;89.76;101927.88;5033574;28;20036;-77
2022/11/10 05:37:50;;;;;;;7.00;1.60;;;;;;;7.88;89.58;101928.75;5036364;28;20029;-77
2022/11/10 05:40:16;;;;;;;8.45;1.70;;;;;;;7.86;89.62;101930.47;5036638;28;20021;-77
2022/11/10 05:42:46;;;;;;;5.18;1.90;;;;;;;7.83;89.84;101934.78;5037221;28;20104;-77
2022/11/10 05:45:11;;;;;;;5.72;1.30;;;;;;;7.83;89.66;101947.72;5033608;28;20040;-77
2022/11/10 05:47:37;;;;;;;6.25;1.60;;;;;;;7.81;89.97;101946.84;5030754;28;20387;-77
2022/11/10 05:50:03;;;;;;;7.72;1.50;;;;;;;7.80;90.10;101940.78;5028623;28;20022;-77
2022/11/10 05:52:28;;;;;;;4.78;1.83;;;;;;;7.81;90.42;101952.03;5035742;28;20068;-76
2022/11/10 05:54:57;;;;;;;6.03;1.48;;;;;;;7.81;89.91;101959.81;5034241;28;20119;-77
2022/11/10 05:57:22;;;;;;;6.95;1.58;;;;;;;7.82;90.14;101962.41;5034140;28;20108;-76
2022/11/10 05:59:47;;;;;;;6.47;1.55;;;;;;;7.81;90.30;101958.06;5029578;28;20108;-77
2022/11/10 06:02:12;;;;;;;9.32;1.70;;;;;;;7.81;90.05;101962.41;5032615;28;20026;-76
2022/11/10 06:04:38;;;;;;;9.45;1.75;;;;;;;7.79;90.27;101964.13;5031593;28;20025;-76
2022/11/10 06:07:03;;;;;;;6.68;1.55;;;;;;;7.79;90.22;101975.31;5011390;28;20032;-76
2022/11/10 06:09:28;;;;;;;8.07;1.73;;;;;;;7.78;90.03;101972.75;5034467;28;20116;-77
2022/11/10 06:11:54;;;;;;;8.18;1.58;;;;;;;7.76;90.41;101985.72;5029317;28;20488;-77
2022/11/10 06:14:19;;;;;;;5.40;1.55;;;;;;;7.76;90.15;101985.72;5034848;28;20049;-77
2022/11/10 06:16:44;;;;;;;8.57;1.77;;;;;;;7.77;90.21;101989.16;5031750;28;20092;-76
2022/11/10 06:19:10;;;;;;;9.50;1.60;;;;;;;7.73;90.39;101981.34;5031691;28;20476;-77
2022/11/10 06:21:36;;;;;;;6.35;1.40;;;;;;;7.73;90.66;101985.69;5028629;28;20056;-77
2022/11/10 06:24:01;;;;;;;8.02;1.70;;;;;;;7.70;90.73;101986.50;5030055;28;20036;-77
2022/11/10 06:26:26;;;;;;;9.98;1.70;;;;;;;7.68;90.45;101997.75;5031159;28;20036;-77
2022/11/10 06:28:52;;;;;;;6.70;1.70;;;;;;;7.66;90.46;101995.16;5034668;28;20411;-77
2022/11/10 06:31:17;;;;;;;5.95;1.60;;;;;;;7.65;90.81;101995.13;5030717;28;20065;-76
2022/11/10 06:33:42;;;;;;;6.63;1.60;;;;;;;7.63;91.02;101989.94;5031963;28;20453;-77
2022/11/10 06:36:08;;;;;;;6.72;1.40;;;;;;;7.62;90.83;102001.16;5030851;28;20152;-77
2022/11/10 06:38:33;;;;;;;6.57;1.30;;;;;;;7.62;90.92;102014.13;5031239;28;20159;-77
2022/11/10 06:40:58;;;;;;;5.97;1.30;;;;;;;7.61;91.17;102012.38;5031287;28;20018;-77
2022/11/10 06:43:24;;;;;;;8.38;1.50;;;;;;;7.61;90.96;102020.16;5034449;28;20419;-77
2022/11/10 06:45:49;;;;;;;7.15;1.63;;;;;;;7.60;90.84;102026.19;5028068;28;20465;-77
2022/11/10 06:48:14;;;;;;;8.00;1.88;;;;;;;7.60;91.13;102028.78;5029564;28;20470;-77
2022/11/10 06:50:40;;;;;;;7.35;1.77;;;;;;;7.62;90.95;102050.38;5022997;28;20469;-77
2022/11/10 06:53:05;;;;;;;5.50;1.48;;;;;;;7.61;90.84;102046.06;5028237;28;20040;-77
2022/11/10 06:55:31;;;;;;;6.80;1.50;;;;;;;7.60;91.06;102046.91;5026357;28;20029;-77
2022/11/10 06:57:56;;;;;;;8.40;1.60;;;;;;;7.57;90.96;102057.25;5030900;28;20044;-77
2022/11/10 07:00:22;;;;;;;8.25;2.00;;;;;;;7.59;91.10;102060.72;5025953;28;20034;-77
2022/11/10 07:02:47;;;;;;;8.70;1.70;;;;;;;7.58;90.98;102067.63;5025840;28;20057;-76
2022/11/10 07:05:14;;;;;;;8.55;1.70;;;;;;;7.56;91.16;102071.94;5031077;28;20037;-77
2022/11/10 07:07:39;;;;;;;9.88;1.40;;;;;;;7.56;91.41;102068.47;5027417;28;20076;-77
2022/11/10 07:10:05;;;;;;;9.65;1.60;;;;;;;7.56;91.29;102066.75;5025146;28;20245;-77
2022/11/10 07:12:30;;;;;;;6.63;2.00;;;;;;;7.55;91.73;102065.00;5029246;28;20100;-77
2022/11/10 07:14:56;;;;;;;8.30;1.80;;;;;;;7.57;91.65;102077.97;5032312;28;20032;-77
2022/11/10 07:17:21;;;;;;;10.15;2.20;;;;;;;7.59;91.31;102077.13;5030761;28;20396;-77
2022/11/10 07:19:47;;;;;;;7.60;1.70;;;;;;;7.58;91.87;102090.94;5030811;28;20079;-76
2022/11/10 07:22:12;;;;;;;7.68;1.88;;;;;;;7.59;91.39;102094.38;5031508;28;20108;-77
2022/11/10 07:24:37;;;;;;;7.20;1.85;;;;;;;7.60;91.78;102090.94;5037644;28;20468;-77
2022/11/10 07:27:02;;;;;;;13.40;2.00;;;;;;;7.63;91.92;102098.72;5019841;28;20078;-77
2022/11/10 07:29:28;;;;;;;8.82;1.85;;;;;;;7.66;91.73;102098.75;5034389;28;20037;-77
2022/11/10 07:31:53;;;;;;;4.72;1.80;;;;;;;7.68;91.70;102112.59;5032149;28;20173;-77
2022/11/10 07:34:20;;;;;;;11.25;1.95;;;;;;;7.69;91.41;102119.47;5030116;28;20040;-77
2022/11/10 07:36:45;;;;;;;6.28;1.67;;;;;;;7.73;91.24;102122.97;5031323;28;20461;-77
2022/11/10 07:39:11;;;;;;;11.13;2.10;;;;;;;7.75;91.77;102119.53;5030463;28;20132;-77
2022/11/10 07:41:36;;;;;;;7.00;1.92;;;;;;;7.78;92.24;102110.03;5026706;28;20036;-77
2022/11/10 07:44:02;;;;;;;11.18;2.10;;;;;;;7.81;91.90;102112.66;5028689;28;20033;-77
2022/11/10 07:46:28;;;;;;;7.10;1.92;;;;;;;7.84;91.57;102115.28;5028089;28;20030;-76
2022/11/10 07:48:54;;;;;;;6.38;1.98;;;;;;;7.86;91.73;102113.53;5026808;28;20042;-77
2022/11/10 07:51:19;;;;;;;8.50;1.83;;;;;;;7.89;91.79;102110.97;5026528;28;20021;-77
2022/11/10 07:53:44;;;;;;;9.20;2.00;;;;;;;7.91;91.95;102119.63;5032027;28;20036;-77
2022/11/10 07:56:09;;;;;;;8.93;1.95;;;;;;;7.95;91.89;102125.69;5028981;28;20061;-77
2022/11/10 07:58:35;;;;;;;11.38;2.22;;;;;;;7.98;91.69;102120.53;5029255;28;20029;-77
2022/11/10 08:01:00;;;;;;;6.85;2.10;;;;;;;8.00;92.18;102122.28;5027741;28;20533;-77
2022/11/10 08:03:26;;;;;;;9.85;2.03;;;;;;;8.03;92.12;102124.88;5029719;28;20029;-77
2022/11/10 08:05:51;;;;;;;9.95;1.80;;;;;;;8.08;91.84;102139.59;5027916;28;20033;-77
2022/11/10 08:08:17;;;;;;;10.48;1.95;;;;;;;8.14;92.64;102137.88;5026190;28;20472;-76
2022/11/10 08:10:42;;;;;;;6.60;1.75;;;;;;;8.17;92.17;102147.44;5029778;28;20022;-76
2022/11/10 08:13:10;;;;;;;8.57;2.08;;;;;;;8.22;91.89;102156.06;5028261;28;20046;-77
2022/11/10 08:15:36;;;;;;;7.22;1.90;;;;;;;8.26;91.55;102155.25;5025864;28;20518;-77
2022/11/10 08:18:18;;;;;;;7.85;1.90;;;;;;;8.29;91.83;102160.44;5025588;28;20044;-76
2022/11/10 08:20:44;;;;;;;5.80;1.90;;;;;;;8.35;91.97;102168.28;5028039;28;20029;-76
2022/11/10 08:23:09;;;;;;;10.20;2.20;;;;;;;8.41;91.55;102171.72;5024363;28;20025;-77
2022/11/10 08:25:37;;;;;;;8.98;2.00;;;;;;;8.46;91.55;102176.06;5025398;28;20383;-76
2022/11/10 08:28:11;;;;;;;9.13;1.77;;;;;;;8.50;91.66;102172.66;5023761;28;20033;-76
2022/11/10 08:30:38;;;;;;;11.80;1.90;;;;;;;8.55;91.50;102172.69;5022195;28;20124;-76
2022/11/10 08:33:06;;;;;;;9.00;2.00;;;;;;;8.62;90.93;102177.06;5023993;28;20022;-77
2022/11/10 08:35:34;;;;;;;6.43;1.85;;;;;;;8.64;91.27;102169.25;5025611;28;20116;-76
2022/11/10 08:38:15;;;;;;;7.05;2.08;;;;;;;8.68;91.24;102176.19;5025334;28;20052;-77
2022/11/10 08:40:40;;;;;;;8.05;1.85;;;;;;;8.74;91.51;102164.97;5025965;28;20036;-77
2022/11/10 08:43:06;;;;;;;7.68;1.73;;;;;;;8.79;90.89;102168.47;5025209;28;20060;-76
2022/11/10 08:45:35;;;;;;;9.35;1.85;;;;;;;8.84;90.91;102171.94;5025871;28;20033;-77
2022/11/10 08:48:04;;;;;;;9.02;2.10;;;;;;;8.91;90.52;102175.41;5028481;28;20028;-76
2022/11/10 08:50:30;;;;;;;10.30;2.00;;;;;;;8.96;90.59;102173.72;5030333;28;20078;-77
2022/11/10 08:52:55;;;;;;;10.05;2.30;;;;;;;9.01;90.85;102186.69;5029636;28;20480;-76
2022/11/10 08:55:21;;;;;;;9.02;1.80;;;;;;;9.07;90.71;102190.16;5029960;28;20018;-77
2022/11/10 08:57:47;;;;;;;7.32;1.92;;;;;;;9.13;90.19;102198.84;5027039;28;20527;-76
2022/11/10 09:00:14;;;;;;;8.48;2.00;;;;;;;9.17;89.74;102184.97;5029999;28;20025;-77
2022/11/10 09:02:39;;;;;;;10.35;2.47;;;;;;;9.21;89.61;102191.91;5028804;28;20043;-76
2022/11/10 09:05:05;;;;;;;6.20;1.85;;;;;;;9.24;89.89;102197.97;5030456;28;20532;-76
2022/11/10 09:07:31;;;;;;;5.85;1.50;;;;;;;9.30;89.23;102204.06;5023933;28;20029;-76
2022/11/10 09:09:56;;;;;;;8.23;1.92;;;;;;;9.33;89.24;102201.47;5006058;28;20128;-77
2022/11/10 09:12:21;;;;;;;6.47;2.00;;;;;;;9.34;89.25;102206.66;5027897;28;20064;-76
2022/11/10 09:14:47;;;;;;;6.72;1.98;;;;;;;9.41;89.88;102212.72;5022988;28;20037;-77
2022/11/10 09:17:12;;;;;;;10.27;1.98;;;;;;;9.44;89.30;102204.09;5027802;28;20116;-76
2022/11/10 09:19:38;;;;;;;8.07;2.38;;;;;;;9.48;88.63;102217.06;5029103;28;20028;-76
2022/11/10 09:22:03;;;;;;;8.10;1.95;;;;;;;9.52;89.35;102218.81;5030958;28;20112;-77
2022/11/10 09:24:28;;;;;;;10.73;2.15;;;;;;;9.57;89.56;102221.41;5027108;28;20025;-76
2022/11/10 09:26:54;;;;;;;9.68;2.25;;;;;;;9.63;89.38;102215.34;5029767;28;20033;-77
2022/11/10 09:29:20;;;;;;;9.07;2.00;;;;;;;9.68;88.90;102218.81;5027852;28;20477;-76
2022/11/10 09:31:45;;;;;;;10.07;2.00;;;;;;;9.72;88.76;102215.38;5029370;28;20117;-77
2022/11/10 09:34:11;;;;;;;7.28;2.20;;;;;;;9.76;88.25;102222.28;5004139;28;20117;-76
2022/11/10 09:36:39;;;;;;;10.75;1.88;;;;;;;9.81;88.74;102225.75;5030452;28;20062;-76
2022/11/10 09:39:04;;;;;;;7.82;1.70;;;;;;;9.86;88.02;102229.22;5026223;28;20036;-76
2022/11/10 09:41:29;;;;;;;9.80;1.80;;;;;;;9.93;88.17;102226.59;5027339;28;20037;-76
2022/11/10 09:44:00;;;;;;;12.25;2.10;;;;;;;9.97;87.60;102223.13;5031414;28;20033;-76
2022/11/10 09:46:56;;;;;;;13.32;1.98;;;;;;;10.04;88.27;102230.06;5007825;28;20029;-77
2022/11/10 09:49:25;;;;;;;10.07;1.90;;;;;;;10.08;87.37;102234.38;5025000;28;20454;-77
2022/11/10 09:51:52;;;;;;;9.63;1.95;;;;;;;10.13;87.99;102248.25;5025530;28;20468;-77
2022/11/10 09:54:29;;;;;;;9.95;1.80;;;;;;;10.18;87.46;102240.44;5028041;28;20033;-77
2022/11/10 09:56:59;;;;;;;7.95;1.83;;;;;;;10.24;87.19;102235.22;5031350;28;20026;-77
2022/11/10 09:59:33;;;;;;;13.18;2.50;;;;;;;10.30;87.04;102239.56;5011315;28;20117;-77
2022/11/10 10:02:28;;;;;;;10.68;1.70;;;;;;;10.36;87.17;102239.53;5028769;28;20495;-77
2022/11/10 10:05:13;;;;;;;9.63;2.35;;;;;;;10.39;86.81;102231.78;5007590;28;20132;-77
2022/11/10 10:07:50;;;;;;;13.60;1.92;;;;;;;10.44;86.99;102227.41;5029180;28;20086;-77
2022/11/10 10:10:28;;;;;;;11.20;1.88;;;;;;;10.48;86.79;102223.94;5002241;28;20037;-77
2022/11/10 10:13:02;;;;;;;14.68;1.95;;;;;;;10.57;86.78;102237.78;5028573;28;20053;-77
2022/11/10 10:16:02;;;;;;;7.32;1.65;;;;;;;10.63;86.19;102240.34;5012369;28;20029;-77
2022/11/10 10:18:53;;;;;;;8.95;1.90;;;;;;;10.68;86.93;102245.53;5027036;28;20064;-77
2022/11/10 10:21:27;;;;;;;8.13;1.75;;;;;;;10.74;85.11;102256.81;5032520;28;20037;-77
2022/11/10 10:23:54;;;;;;;7.75;1.85;;;;;;;10.80;85.33;102265.47;5033930;28;20487;-77
2022/11/10 10:26:23;;;;;;;7.85;1.88;;;;;;;10.83;85.24;102261.13;5017560;28;20022;-77
2022/11/10 10:28:50;;;;;;;11.32;2.13;;;;;;;10.90;85.21;102272.38;5032215;28;20025;-77
2022/11/10 10:31:24;;;;;;;11.80;2.05;;;;;;;10.96;84.38;102271.47;5026237;28;20025;-77
2022/11/10 10:33:51;;;;;;;10.82;1.92;;;;;;;11.02;84.42;102274.94;5034617;28;20029;-76
2022/11/10 10:36:25;;;;;;;7.22;1.50;;;;;;;11.05;84.08;102276.63;5033867;28;20495;-78
2022/11/10 10:38:59;;;;;;;6.07;1.48;;;;;;;11.09;83.62;102278.38;5022692;28;20087;-76
2022/11/10 10:41:27;;;;;;;7.25;1.80;;;;;;;11.14;83.81;102283.53;5028637;28;20014;-76
2022/11/10 10:43:58;;;;;;;9.07;1.50;;;;;;;11.18;83.06;102285.28;5030311;28;20384;-77
2022/11/10 10:46:27;;;;;;;11.70;1.70;;;;;;;11.22;83.10;102290.44;5030339;28;20437;-77
2022/11/10 10:49:13;;;;;;;9.23;2.10;;;;;;;11.28;83.17;102299.97;5025880;28;20044;-76
2022/11/10 10:51:39;;;;;;;10.50;1.90;;;;;;;11.32;83.16;102309.50;5030539;28;20025;-77
2022/11/10 10:54:22;;;;;;;9.45;2.17;;;;;;;11.38;83.19;102306.00;5015123;28;20032;-77
2022/11/10 10:56:48;;;;;;;9.70;1.60;;;;;;;11.44;81.90;102300.75;5029678;28;20438;-77
2022/11/10 10:59:20;;;;;;;9.80;1.98;;;;;;;11.50;82.33;102305.06;5031074;28;20026;-76
2022/11/10 11:01:46;;;;;;;7.25;1.98;;;;;;;11.56;82.72;102304.16;5030159;28;20032;-77
2022/11/10 11:04:25;;;;;;;11.57;1.92;;;;;;;11.61;82.13;102312.81;5030878;28;20033;-77
2022/11/10 11:07:03;;;;;;;6.47;1.40;;;;;;;11.68;82.34;102310.16;5033145;28;20038;-76
2022/11/10 11:09:39;;;;;;;8.93;1.48;;;;;;;11.73;81.39;102311.88;5029833;28;20389;-77
2022/11/10 11:12:11;;;;;;;11.20;1.70;;;;;;;11.80;81.32;102308.34;5031609;28;20049;-77
2022/11/10 11:14:37;;;;;;;7.30;1.35;;;;;;;11.84;80.74;102304.84;5030625;28;20112;-76
2022/11/10 11:17:22;;;;;;;9.20;1.50;;;;;;;11.90;80.60;102299.59;5030813;28;20152;-76
2022/11/10 11:19:53;;;;;;;6.22;1.40;;;;;;;11.95;78.61;102303.03;5030884;28;20041;-76
2022/11/10 11:22:50;;;;;;;10.18;1.23;;;;;;;12.03;79.75;102291.69;5032861;28;20021;-76
2022/11/10 11:25:27;;;;;;;6.18;1.30;;;;;;;12.08;77.90;102300.34;5029365;28;20044;-76
2022/11/10 11:28:31;;;;;;;8.75;1.80;;;;;;;12.17;79.20;102297.66;5026679;28;20127;-77
2022/11/10 11:30:56;;;;;;;8.75;1.25;;;;;;;12.24;77.62;102294.13;5025379;28;20030;-77
2022/11/10 11:33:45;;;;;;;11.07;2.15;;;;;;;12.33;79.00;102297.50;5025170;28;20040;-76
2022/11/10 11:36:38;;;;;;;5.55;1.10;;;;;;;12.40;77.97;102307.84;5027911;28;20617;-76
2022/11/10 11:39:15;;;;;;;5.32;1.25;;;;;;;12.48;77.33;102318.22;5028144;28;20033;-77
2022/11/10 11:42:02;;;;;;;8.15;1.50;;;;;;;12.55;76.46;102319.91;5028509;28;20025;-77
2022/11/10 11:45:12;;;;;;;6.03;1.30;;;;;;;12.65;78.16;102323.28;5026970;28;20033;-77
2022/11/10 11:47:58;;;;;;;6.22;1.40;;;;;;;12.73;76.97;102318.84;5025741;28;20140;-77
2022/11/10 11:50:35;;;;;;;5.85;1.10;;;;;;;12.81;76.64;102321.34;5028709;28;20064;-77